Commodore Goodwill — C6NU8 — position and weather

sailwx.info

Track history (hours):
 
Tides and Currents Weather Stations Pressure Air Temp Water Temp Dewpoint Dewpoint Depression Visibility Wind Speed Wind Dir Waves Ship Positions

Commodore Goodwill

Operator: Condor Marine Services

Last reported at 2018-Sep-24 19:39 UTC. Time now 2018-Sep-24 21:01 UTC.
Position N 50°34' W 001°09'.

Length 126 m; draft 5.2 m.

Type: Ship (hazmat cat C). MMSI: 309536000.

Date/timePositionNaut miles runAvg speedWind from/ knotsBaromVisibWave heightAir tempDewpointWater temp
2018-Sep-24 19:39N 50°34' W 001°09'214.0
2018-Sep-24 19:30N 50°36' W 001°07'714.6
2018-Sep-24 19:03N 50°42' W 001°03'115.3
2018-Sep-24 19:01N 50°43' W 001°03'612.7
2018-Sep-24 18:31N 50°49' W 001°06'0 0.9
2018-Sep-24 18:03N 50°49' W 001°06'0 0.0
2018-Sep-24 18:00N 50°49' W 001°06'0 0.0
2018-Sep-24 17:30N 50°49' W 001°06'0 0.0
2018-Sep-24 17:03N 50°49' W 001°06'0 0.0
2018-Sep-24 17:00N 50°49' W 001°06'0 0.0
2018-Sep-24 16:30N 50°49' W 001°06'0 0.0
2018-Sep-24 16:03N 50°49' W 001°06'0 0.1
2018-Sep-24 16:00N 50°49' W 001°06'0 0.0
2018-Sep-24 15:30N 50°49' W 001°06'0 0.3
2018-Sep-24 15:03N 50°49' W 001°06'0 0.0
2018-Sep-24 15:00N 50°49' W 001°06'2 4.9
2018-Sep-24 14:31N 50°46' W 001°06'713.9
2018-Sep-24 14:00N 50°39' W 001°05'815.7
2018-Sep-24 13:30N 50°33' W 001°13'3314.9
2018-Sep-24 11:16N 50°05' W 001°42'315.2
2018-Sep-24 11:04N 50°04' W 001°46'115.0
2018-Sep-24 10:59N 50°03' W 001°48'916.1
2018-Sep-24 10:24N 49°54' W 001°52'514.2
2018-Sep-24 10:03N 49°50' W 001°56'114.1
2018-Sep-24 10:01N 49°50' W 001°57'915.5
2018-Sep-24 09:24N 49°42' W 002°05'1416.8
2018-Sep-24 08:33N 49°34' W 002°23'118.2
2018-Sep-24 08:31N 49°33' W 002°24'815.3
2018-Sep-24 08:01N 49°27' W 002°32'0 0.0
2018-Sep-24 07:52N 49°27' W 002°32'0 0.0
2018-Sep-24 07:30N 49°27' W 002°32'0 0.0
2018-Sep-24 07:03N 49°27' W 002°32'0 0.0
2018-Sep-24 06:59N 49°27' W 002°32'510.1
2018-Sep-24 06:31N 49°23' W 002°28'28 4.0
2018-Sep-23 23:37N 49°46' W 002°02'313.5
2018-Sep-23 23:24N 49°48' W 001°60'513.5
2018-Sep-23 23:03N 49°52' W 001°56'113.0
2018-Sep-23 23:00N 49°52' W 001°55'713.4
2018-Sep-23 22:30N 49°58' W 001°50'613.6
2018-Sep-23 22:03N 50°03' W 001°43'113.8
2018-Sep-23 22:00N 50°03' W 001°42'713.4
2018-Sep-23 21:30N 50°08' W 001°36'3213.1
2018-Sep-23 19:05N 50°35' W 001°09'012.7
2018-Sep-23 19:03N 50°35' W 001°09'113.4
2018-Sep-23 18:59N 50°36' W 001°08'612.9
2018-Sep-23 18:30N 50°41' W 001°03'613.8
2018-Sep-23 18:03N 50°47' W 001°06'110.3
2018-Sep-23 18:01N 50°48' W 001°07'1 2.6
2018-Sep-23 17:30N 50°49' W 001°06'0 0.0
2018-Sep-23 17:03N 50°49' W 001°06'0 0.0
2018-Sep-23 17:00N 50°49' W 001°06'0 0.0
2018-Sep-23 16:30N 50°49' W 001°06'0 0.0
2018-Sep-23 16:03N 50°49' W 001°06'0 0.0
2018-Sep-23 16:00N 50°49' W 001°06'0 0.0
2018-Sep-23 15:31N 50°49' W 001°06'0 0.0
2018-Sep-23 15:04N 50°49' W 001°06'0 0.0
2018-Sep-23 15:01N 50°49' W 001°06'0 0.0
2018-Sep-23 14:31N 50°49' W 001°06'0 0.0
2018-Sep-23 13:30N 50°49' W 001°06'0 0.0
2018-Sep-23 13:03N 50°49' W 001°06'0 0.0
2018-Sep-23 13:00N 50°49' W 001°06'0 0.0
2018-Sep-23 12:30N 50°49' W 001°06'0 0.0
2018-Sep-23 12:03N 50°49' W 001°06'0 0.0
2018-Sep-23 12:01N 50°49' W 001°06'0 0.0
2018-Sep-23 11:30N 50°49' W 001°06'0 0.0
2018-Sep-23 11:03N 50°49' W 001°06'0 0.0
2018-Sep-23 11:01N 50°49' W 001°06'0 0.0
2018-Sep-23 10:30N 50°49' W 001°06'0 0.0
2018-Sep-23 10:04N 50°49' W 001°06'0 0.0
2018-Sep-23 10:00N 50°49' W 001°06'0 0.0
2018-Sep-23 09:30N 50°49' W 001°06'0 0.0
2018-Sep-23 09:04N 50°49' W 001°06'0 0.0
2018-Sep-23 09:00N 50°49' W 001°06'0 0.0
2018-Sep-23 08:30N 50°49' W 001°06'0 0.0
2018-Sep-23 08:03N 50°49' W 001°06'0 0.0
2018-Sep-23 08:00N 50°49' W 001°06'0 0.0
2018-Sep-23 07:30N 50°49' W 001°06'0 0.0
2018-Sep-23 07:03N 50°49' W 001°06'0 0.0
2018-Sep-23 07:00N 50°49' W 001°06'0 0.0
2018-Sep-23 06:30N 50°49' W 001°06'1 2.3
2018-Sep-23 06:03N 50°48' W 001°07'111.0
2018-Sep-23 06:00N 50°47' W 001°07'714.1
2018-Sep-23 05:30N 50°41' W 001°03'715.4
2018-Sep-23 05:03N 50°34' W 001°08'114.4
2018-Sep-23 05:00N 50°34' W 001°08'6212.5
2018-Sep-23 00:03N 49°43' W 002°04'0 8.7
2018-Sep-23 00:00N 49°43' W 002°04'24 1.2
2018-Sep-22 05:00N 49°25' W 002°29'3 5.6
2018-Sep-22 04:30N 49°27' W 002°32'0 0.0
2018-Sep-22 04:03N 49°27' W 002°32'0 0.0
2018-Sep-22 04:01N 49°27' W 002°32'0 0.2
2018-Sep-22 03:30N 49°27' W 002°32'4 8.1
2018-Sep-22 03:03N 49°26' W 002°26'116.6
2018-Sep-22 02:58N 49°27' W 002°25'8315.5
2018-Sep-21 21:38N 50°34' W 001°10'215.9
2018-Sep-21 21:30N 50°36' W 001°08'715.2
2018-Sep-21 21:03N 50°42' W 001°03'115.5
2018-Sep-21 21:00N 50°43' W 001°03'612.3
2018-Sep-21 20:30N 50°48' W 001°07'1 2.0
2018-Sep-21 20:03N 50°49' W 001°06'0 0.0
2018-Sep-21 20:00N 50°49' W 001°06'0 0.0
2018-Sep-21 19:30N 50°49' W 001°06'0 0.0
2018-Sep-21 19:03N 50°49' W 001°06'0 0.0
2018-Sep-21 19:00N 50°49' W 001°06'0 0.0
2018-Sep-21 18:30N 50°49' W 001°06'0 0.0
2018-Sep-21 18:03N 50°49' W 001°06'0 0.0
2018-Sep-21 18:00N 50°49' W 001°06'0 0.4
2018-Sep-21 17:30N 50°49' W 001°06'4 8.9
2018-Sep-21 17:03N 50°45' W 001°05'115.5
2018-Sep-21 17:00N 50°44' W 001°04'917.3
2018-Sep-21 16:30N 50°36' W 001°08'4818.4
2018-Sep-21 13:54N 49°56' W 001°49'1617.2
2018-Sep-21 12:58N 49°43' W 002°03'2216.8
2018-Sep-21 11:38N 49°22' W 002°16'316.9
2018-Sep-21 11:27N 49°19' W 002°18'9 2.0
2018-Sep-21 07:01N 49°10' W 002°18'417.1
2018-Sep-21 06:48N 49°13' W 002°22'717.7
2018-Sep-21 06:25N 49°16' W 002°31'512.5
2018-Sep-21 06:03N 49°21' W 002°30'317.0
2018-Sep-21 05:54N 49°23' W 002°29'411.0
2018-Sep-21 05:30N 49°27' W 002°32'0 0.0
2018-Sep-21 05:02N 49°27' W 002°32'0 0.0
2018-Sep-21 04:52N 49°27' W 002°32'0 0.0
2018-Sep-21 04:29N 49°27' W 002°32'0 0.0
2018-Sep-21 04:03N 49°27' W 002°32'0 0.3
2018-Sep-21 04:00N 49°27' W 002°32'4 7.6
2018-Sep-21 03:30N 49°26' W 002°26'614.1
2018-Sep-21 03:03N 49°30' W 002°18'114.8
2018-Sep-21 03:00N 49°31' W 002°17'1413.8
2018-Sep-21 01:57N 49°42' W 002°04'715.1
2018-Sep-21 01:30N 49°47' W 001°57'715.4
2018-Sep-21 01:03N 49°52' W 001°49'116.3
2018-Sep-21 01:00N 49°52' W 001°48'816.1
2018-Sep-21 00:31N 49°59' W 001°40'715.8
2018-Sep-21 00:03N 50°05' W 001°36'115.6
2018-Sep-21 00:00N 50°06' W 001°36'815.7
2018-Sep-20 23:30N 50°14' W 001°32'2014.8
2018-Sep-20 22:10N 50°30' W 001°15'515.5
2018-Sep-20 21:50N 50°34' W 001°10'515.8
2018-Sep-20 21:30N 50°38' W 001°06'614.2
2018-Sep-20 21:03N 50°45' W 001°05'115.3
2018-Sep-20 21:00N 50°45' W 001°05'3 6.5
2018-Sep-20 20:30N 50°49' W 001°06'0 0.0
2018-Sep-20 20:03N 50°49' W 001°06'0 0.0
2018-Sep-20 20:00N 50°49' W 001°06'0 0.0
2018-Sep-20 19:30N 50°49' W 001°06'0 0.0
2018-Sep-20 19:03N 50°49' W 001°06'0 0.0
2018-Sep-20 19:00N 50°49' W 001°06'0 0.0
2018-Sep-20 18:30N 50°49' W 001°06'0 0.0
2018-Sep-20 18:03N 50°49' W 001°06'0 0.0
2018-Sep-20 18:00N 50°49' W 001°06'0 0.0
2018-Sep-20 17:30N 50°49' W 001°06'0 0.5
2018-Sep-20 17:04N 50°49' W 001°06'0 5.2
2018-Sep-20 17:00N 50°49' W 001°06'510.0
2018-Sep-20 16:30N 50°44' W 001°04'715.6
2018-Sep-20 16:03N 50°37' W 001°07'120.2
2018-Sep-20 16:00N 50°36' W 001°08'3719.1
2018-Sep-20 14:03N 50°05' W 001°40'118.5
2018-Sep-20 14:00N 50°05' W 001°41'918.5
2018-Sep-20 13:30N 49°57' W 001°49'818.4
2018-Sep-20 13:03N 49°50' W 001°56'118.2
2018-Sep-20 13:00N 49°49' W 001°57'33 4.4
2018-Sep-20 05:33N 49°23' W 002°27'218.0
2018-Sep-20 05:25N 49°25' W 002°29'3 7.1
2018-Sep-20 05:01N 49°27' W 002°32'0 0.0
2018-Sep-20 05:00N 49°27' W 002°32'0 0.0
2018-Sep-20 04:29N 49°27' W 002°32'0 0.0
2018-Sep-20 04:03N 49°27' W 002°32'0 0.0
2018-Sep-20 04:00N 49°27' W 002°32'0 0.0
2018-Sep-20 03:30N 49°27' W 002°32'4 7.8
2018-Sep-20 03:03N 49°26' W 002°27'116.4
2018-Sep-20 02:59N 49°27' W 002°25'2814.5
2018-Sep-20 01:04N 49°48' W 001°59'012.9
2018-Sep-20 01:04N 49°48' W 001°59'114.0
2018-Sep-20 01:00N 49°49' W 001°58'714.5
2018-Sep-20 00:30N 49°56' W 001°53'714.6
2018-Sep-20 00:03N 50°01' W 001°47'115.1
2018-Sep-20 00:00N 50°01' W 001°47'815.1
2018-Sep-19 23:30N 50°07' W 001°38'2814.9
2018-Sep-19 21:38N 50°30' W 001°15'614.9
2018-Sep-19 21:16N 50°35' W 001°10'315.5
2018-Sep-19 21:03N 50°37' W 001°07'116.9
2018-Sep-19 21:01N 50°38' W 001°06'714.7
2018-Sep-19 20:30N 50°45' W 001°05'3 7.4
2018-Sep-19 20:03N 50°49' W 001°06'0 0.0
2018-Sep-19 20:00N 50°49' W 001°06'0 0.0
2018-Sep-19 19:30N 50°49' W 001°06'0 0.0
2018-Sep-19 19:03N 50°49' W 001°06'0 0.0
2018-Sep-19 19:00N 50°49' W 001°06'0 0.0
2018-Sep-19 18:30N 50°49' W 001°06'0 0.0
2018-Sep-19 18:03N 50°49' W 001°06'0 0.0
2018-Sep-19 18:00N 50°49' W 001°06'0 0.0
2018-Sep-19 17:30N 50°49' W 001°06'0 0.0
2018-Sep-19 17:03N 50°49' W 001°06'0 0.1
2018-Sep-19 17:00N 50°49' W 001°06'4 7.0
2018-Sep-19 16:30N 50°45' W 001°05'715.5
2018-Sep-19 16:03N 50°38' W 001°06'120.1
2018-Sep-19 16:00N 50°37' W 001°07'3019.4
2018-Sep-19 14:29N 50°12' W 001°30'1919.2
2018-Sep-19 13:30N 49°57' W 001°47'919.3
2018-Sep-19 13:03N 49°50' W 001°55'119.6
2018-Sep-19 13:00N 49°49' W 001°56'33 5.1
2018-Sep-19 06:37N 49°24' W 002°28'218.2
2018-Sep-19 06:30N 49°26' W 002°29'2 5.5
2018-Sep-19 06:04N 49°27' W 002°32'0 0.0
2018-Sep-19 06:00N 49°27' W 002°32'0 0.0
2018-Sep-19 05:31N 49°27' W 002°32'0 0.1
2018-Sep-19 05:03N 49°27' W 002°32'0 5.8
2018-Sep-19 05:00N 49°27' W 002°31'6 9.8
2018-Sep-19 04:23N 49°28' W 002°22'2414.5
2018-Sep-19 02:42N 49°48' W 002°00'315.4
2018-Sep-19 02:30N 49°51' W 001°58'715.8
2018-Sep-19 02:04N 49°57' W 001°53'116.3
2018-Sep-19 02:00N 49°58' W 001°52'815.1
2018-Sep-19 01:30N 50°03' W 001°45'715.7
2018-Sep-19 01:03N 50°09' W 001°37'116.5
2018-Sep-19 01:00N 50°09' W 001°37'2416.5
2018-Sep-18 23:32N 50°29' W 001°15'617.2
2018-Sep-18 23:10N 50°34' W 001°09'217.8
2018-Sep-18 23:03N 50°36' W 001°07'117.8
2018-Sep-18 23:00N 50°37' W 001°06'815.5
2018-Sep-18 22:30N 50°44' W 001°05'4 9.6
2018-Sep-18 22:03N 50°49' W 001°06'0 0.9
2018-Sep-18 22:00N 50°49' W 001°06'0 0.0
2018-Sep-18 21:31N 50°49' W 001°06'0 0.0
2018-Sep-18 21:03N 50°49' W 001°06'0 0.0
2018-Sep-18 21:01N 50°49' W 001°06'0 0.0
2018-Sep-18 20:30N 50°49' W 001°06'0 0.0
2018-Sep-18 20:04N 50°49' W 001°06'0 0.0
2018-Sep-18 20:01N 50°49' W 001°06'0 0.0
2018-Sep-18 19:31N 50°49' W 001°06'0 0.0
2018-Sep-18 19:04N 50°49' W 001°06'0 0.0
2018-Sep-18 19:01N 50°49' W 001°06'0 0.0
2018-Sep-18 18:31N 50°49' W 001°06'0 0.0
2018-Sep-18 18:03N 50°49' W 001°06'0 0.0
2018-Sep-18 18:00N 50°49' W 001°06'1 1.1
2018-Sep-18 17:31N 50°49' W 001°07'612.4
2018-Sep-18 17:03N 50°43' W 001°03'118.5
2018-Sep-18 17:00N 50°43' W 001°03'816.9
2018-Sep-18 16:31N 50°35' W 001°09'2015.3
2018-Sep-18 15:13N 50°19' W 001°26'1414.5
2018-Sep-18 14:15N 50°07' W 001°39'414.9
2018-Sep-18 14:00N 50°04' W 001°43'714.7
2018-Sep-18 13:30N 49°58' W 001°49'714.8
2018-Sep-18 13:03N 49°52' W 001°53'114.7
2018-Sep-18 13:00N 49°52' W 001°54'2616.0
2018-Sep-18 11:23N 49°31' W 002°17'617.4
2018-Sep-18 11:03N 49°27' W 002°24'118.3
2018-Sep-18 11:00N 49°27' W 002°25'4 7.7
2018-Sep-18 10:28N 49°27' W 002°32'0 0.0
2018-Sep-18 09:59N 49°27' W 002°32'0 0.0
2018-Sep-18 09:30N 49°27' W 002°32'2 4.0
2018-Sep-18 09:03N 49°26' W 002°30'118.4
2018-Sep-18 09:00N 49°25' W 002°30'16 3.5
2018-Sep-18 04:22N 49°10' W 002°20'1212.5
2018-Sep-18 03:21N 49°22' W 002°26'412.0
2018-Sep-18 03:03N 49°25' W 002°29'113.9
2018-Sep-18 03:00N 49°26' W 002°29'2 4.0
2018-Sep-18 02:30N 49°27' W 002°32'0 0.0
2018-Sep-18 02:03N 49°27' W 002°32'0 0.0
2018-Sep-18 01:58N 49°27' W 002°32'4 8.0
2018-Sep-18 01:29N 49°26' W 002°26'714.8
2018-Sep-18 01:03N 49°30' W 002°18'915.2
2018-Sep-18 00:28N 49°35' W 002°07'814.7
2018-Sep-17 23:55N 49°43' W 002°03'513.2
2018-Sep-17 23:31N 49°47' W 001°57'714.9
2018-Sep-17 23:04N 49°52' W 001°50'115.3
2018-Sep-17 23:00N 49°52' W 001°49'714.1
2018-Sep-17 22:30N 49°57' W 001°41'613.4
2018-Sep-17 22:03N 50°01' W 001°34'113.9
2018-Sep-17 22:00N 50°02' W 001°34'713.7
2018-Sep-17 21:30N 50°08' W 001°32'813.6
2018-Sep-17 20:55N 50°16' W 001°29'1314.3
2018-Sep-17 19:59N 50°27' W 001°18'714.8
2018-Sep-17 19:30N 50°33' W 001°11'716.1
2018-Sep-17 19:03N 50°39' W 001°05'118.7
2018-Sep-17 19:00N 50°40' W 001°04'612.2
2018-Sep-17 18:30N 50°46' W 001°05'3 6.3
2018-Sep-17 18:03N 50°49' W 001°06'0 0.0
2018-Sep-17 18:00N 50°49' W 001°06'0 0.0
2018-Sep-17 17:30N 50°49' W 001°06'0 0.0
2018-Sep-17 17:03N 50°49' W 001°06'0 0.0
2018-Sep-17 17:00N 50°49' W 001°06'0 0.0
2018-Sep-17 16:30N 50°49' W 001°06'0 0.0
2018-Sep-17 16:03N 50°49' W 001°06'0 0.0
2018-Sep-17 16:00N 50°49' W 001°06'0 0.0
2018-Sep-17 15:30N 50°49' W 001°06'1 2.3
2018-Sep-17 15:03N 50°48' W 001°07'0 9.8
2018-Sep-17 15:00N 50°48' W 001°07'714.4
2018-Sep-17 14:30N 50°41' W 001°03'815.5
2018-Sep-17 14:00N 50°34' W 001°10'914.5
2018-Sep-17 13:22N 50°27' W 001°18'514.6
2018-Sep-17 13:03N 50°23' W 001°22'114.7
2018-Sep-17 13:00N 50°22' W 001°22'914.6
2018-Sep-17 12:23N 50°15' W 001°30'514.6
2018-Sep-17 12:03N 50°11' W 001°35'114.8
2018-Sep-17 11:59N 50°10' W 001°36'714.5
2018-Sep-17 11:30N 50°04' W 001°42'814.5
2018-Sep-17 10:57N 49°58' W 001°49'614.4
2018-Sep-17 10:30N 49°52' W 001°54'1015.9
2018-Sep-17 09:53N 49°44' W 002°02'3118.5
2018-Sep-17 08:12N 49°15' W 002°21'217.3
2018-Sep-17 08:03N 49°13' W 002°20'117.2
2018-Sep-17 07:59N 49°12' W 002°19'8 2.8
2018-Sep-17 05:05N 49°11' W 002°07'0 0.3
2018-Sep-17 05:03N 49°11' W 002°07'1 6.0
2018-Sep-17 04:55N 49°10' W 002°08'1412.5
2018-Sep-17 03:46N 49°19' W 002°25'413.7
2018-Sep-17 03:28N 49°23' W 002°27'613.5
2018-Sep-17 03:04N 49°27' W 002°32'0 1.8
2018-Sep-17 03:00N 49°27' W 002°32'0 0.0
2018-Sep-17 02:30N 49°27' W 002°32'0 0.0
2018-Sep-17 02:03N 49°27' W 002°32'0 0.0
2018-Sep-17 02:00N 49°27' W 002°32'4 8.0
2018-Sep-17 01:30N 49°27' W 002°26'612.4
2018-Sep-17 01:01N 49°30' W 002°18'2110.5
2018-Sep-16 23:02N 49°47' W 001°59'011.0
2018-Sep-16 22:59N 49°47' W 001°58'611.9
2018-Sep-16 22:30N 49°52' W 001°54'613.0
2018-Sep-16 22:03N 49°57' W 001°49'113.5
2018-Sep-16 22:00N 49°58' W 001°49'713.7
2018-Sep-16 21:30N 50°04' W 001°45'614.0
2018-Sep-16 21:03N 50°10' W 001°40'114.1
2018-Sep-16 21:00N 50°10' W 001°40'1714.6
2018-Sep-16 19:51N 50°24' W 001°24'915.0
2018-Sep-16 19:13N 50°31' W 001°14'314.3
2018-Sep-16 19:01N 50°33' W 001°11'014.3
2018-Sep-16 19:00N 50°33' W 001°11'918.0
2018-Sep-16 18:29N 50°41' W 001°03'614.5
2018-Sep-16 18:04N 50°47' W 001°06'111.1
2018-Sep-16 18:01N 50°47' W 001°07'2 3.0
2018-Sep-16 17:31N 50°49' W 001°06'0 0.0
2018-Sep-16 17:04N 50°49' W 001°06'0 0.0
2018-Sep-16 17:01N 50°49' W 001°06'0 0.0
2018-Sep-16 16:31N 50°49' W 001°06'0 0.0
2018-Sep-16 16:03N 50°49' W 001°06'0 0.0
2018-Sep-16 16:01N 50°49' W 001°06'0 0.0
2018-Sep-16 15:30N 50°49' W 001°06'0 0.0
2018-Sep-16 15:04N 50°49' W 001°06'0 0.0
2018-Sep-16 15:01N 50°49' W 001°06'0 0.0
2018-Sep-16 14:00N 50°49' W 001°06'0 0.0
2018-Sep-16 13:31N 50°49' W 001°06'0 0.0
2018-Sep-16 13:04N 50°49' W 001°06'0 0.0
2018-Sep-16 13:01N 50°49' W 001°06'0 0.0
2018-Sep-16 12:31N 50°49' W 001°06'0 0.0
2018-Sep-16 12:03N 50°49' W 001°06'0 0.0
2018-Sep-16 12:01N 50°49' W 001°06'0 0.0
2018-Sep-16 11:31N 50°49' W 001°06'0 0.0
2018-Sep-16 11:04N 50°49' W 001°06'0 0.0
2018-Sep-16 11:01N 50°49' W 001°06'0 0.0
2018-Sep-16 10:30N 50°49' W 001°06'0 0.0
2018-Sep-16 10:04N 50°49' W 001°06'0 0.0
2018-Sep-16 10:01N 50°49' W 001°06'0 0.0
2018-Sep-16 09:30N 50°49' W 001°06'0 0.0
2018-Sep-16 09:04N 50°49' W 001°06'0 0.0
2018-Sep-16 09:01N 50°49' W 001°06'0 0.0
2018-Sep-16 08:30N 50°49' W 001°06'0 0.0
2018-Sep-16 08:04N 50°49' W 001°06'0 0.0
2018-Sep-16 08:01N 50°49' W 001°06'0 0.0
2018-Sep-16 07:30N 50°49' W 001°06'0 0.0
2018-Sep-16 07:03N 50°49' W 001°06'0 0.0
2018-Sep-16 07:01N 50°49' W 001°06'0 0.0
2018-Sep-16 06:30N 50°49' W 001°06'1 2.7
2018-Sep-16 06:04N 50°48' W 001°07'0 9.2
2018-Sep-16 06:00N 50°47' W 001°06'714.4
2018-Sep-16 05:30N 50°40' W 001°04'714.4
2018-Sep-16 05:03N 50°35' W 001°10'113.7
2018-Sep-16 05:00N 50°34' W 001°10'713.8
2018-Sep-16 04:30N 50°28' W 001°15'613.7
2018-Sep-16 04:04N 50°22' W 001°19'113.6
2018-Sep-16 04:00N 50°22' W 001°20'713.9
2018-Sep-16 03:30N 50°16' W 001°25'614.2
2018-Sep-16 03:03N 50°10' W 001°31'114.4
2018-Sep-16 03:00N 50°10' W 001°31'714.6
2018-Sep-16 02:30N 50°04' W 001°37'715.1
2018-Sep-16 02:03N 49°58' W 001°43'115.5
2018-Sep-16 02:00N 49°57' W 001°44'815.7
2018-Sep-16 01:31N 49°51' W 001°51'3216.7
2018-Sep-15 23:35N 49°24' W 002°17'416.9
2018-Sep-15 23:19N 49°20' W 002°21'516.8
2018-Sep-15 23:01N 49°15' W 002°21'517.5
2018-Sep-15 22:44N 49°11' W 002°18'7 3.4
2018-Sep-15 20:40N 49°10' W 002°07'5 9.8
2018-Sep-15 20:09N 49°05' W 002°11'19 1.2
2018-Sep-15 03:43N 49°21' W 002°27'1 5.1
2018-Sep-15 03:29N 49°22' W 002°27'512.3
2018-Sep-15 03:03N 49°27' W 002°30'111.5
2018-Sep-15 03:00N 49°27' W 002°31'0 0.5
2018-Sep-15 02:30N 49°27' W 002°32'0 0.0
2018-Sep-15 02:03N 49°27' W 002°32'0 0.0
2018-Sep-15 01:59N 49°27' W 002°32'4 7.9
2018-Sep-15 01:30N 49°26' W 002°26'714.3
2018-Sep-15 01:02N 49°30' W 002°18'2113.8
2018-Sep-14 23:31N 49°47' W 001°58'012.7
2018-Sep-14 23:30N 49°47' W 001°58'613.8
2018-Sep-14 23:03N 49°52' W 001°52'114.4
2018-Sep-14 23:00N 49°52' W 001°52'714.4
2018-Sep-14 22:30N 49°58' W 001°44'614.4
2018-Sep-14 22:04N 50°04' W 001°40'115.6
2018-Sep-14 22:01N 50°04' W 001°40'714.5
2018-Sep-14 21:30N 50°10' W 001°32'  
Track history (hours):
 
Tides and Currents Weather Stations Pressure Air Temp Water Temp Dewpoint Dewpoint Depression Visibility Wind Speed Wind Dir Waves Ship Positions

Commodore Goodwill

Operator: Condor Marine Services

Last reported at 2018-Sep-24 19:39 UTC. Time now 2018-Sep-24 21:01 UTC.
Position N 50°34' W 001°09'.

Length 126 m; draft 5.2 m.

Type: Ship (hazmat cat C). MMSI: 309536000.

Date/timePositionNaut miles runAvg speedWind from/ knotsBaromVisibWave heightAir tempDewpointWater temp
2018-Sep-24 19:39N 50°34' W 001°09'214.0
2018-Sep-24 19:30N 50°36' W 001°07'714.6
2018-Sep-24 19:03N 50°42' W 001°03'115.3
2018-Sep-24 19:01N 50°43' W 001°03'612.7
2018-Sep-24 18:31N 50°49' W 001°06'0 0.9
2018-Sep-24 18:03N 50°49' W 001°06'0 0.0
2018-Sep-24 18:00N 50°49' W 001°06'0 0.0
2018-Sep-24 17:30N 50°49' W 001°06'0 0.0
2018-Sep-24 17:03N 50°49' W 001°06'0 0.0
2018-Sep-24 17:00N 50°49' W 001°06'0 0.0
2018-Sep-24 16:30N 50°49' W 001°06'0 0.0
2018-Sep-24 16:03N 50°49' W 001°06'0 0.1
2018-Sep-24 16:00N 50°49' W 001°06'0 0.0
2018-Sep-24 15:30N 50°49' W 001°06'0 0.3
2018-Sep-24 15:03N 50°49' W 001°06'0 0.0
2018-Sep-24 15:00N 50°49' W 001°06'2 4.9
2018-Sep-24 14:31N 50°46' W 001°06'713.9
2018-Sep-24 14:00N 50°39' W 001°05'815.7
2018-Sep-24 13:30N 50°33' W 001°13'3314.9
2018-Sep-24 11:16N 50°05' W 001°42'315.2
2018-Sep-24 11:04N 50°04' W 001°46'115.0
2018-Sep-24 10:59N 50°03' W 001°48'916.1
2018-Sep-24 10:24N 49°54' W 001°52'514.2
2018-Sep-24 10:03N 49°50' W 001°56'114.1
2018-Sep-24 10:01N 49°50' W 001°57'915.5
2018-Sep-24 09:24N 49°42' W 002°05'1416.8
2018-Sep-24 08:33N 49°34' W 002°23'118.2
2018-Sep-24 08:31N 49°33' W 002°24'815.3
2018-Sep-24 08:01N 49°27' W 002°32'0 0.0
2018-Sep-24 07:52N 49°27' W 002°32'0 0.0
2018-Sep-24 07:30N 49°27' W 002°32'0 0.0
2018-Sep-24 07:03N 49°27' W 002°32'0 0.0
2018-Sep-24 06:59N 49°27' W 002°32'510.1
2018-Sep-24 06:31N 49°23' W 002°28'28 4.0
2018-Sep-23 23:37N 49°46' W 002°02'313.5
2018-Sep-23 23:24N 49°48' W 001°60'513.5
2018-Sep-23 23:03N 49°52' W 001°56'113.0
2018-Sep-23 23:00N 49°52' W 001°55'713.4
2018-Sep-23 22:30N 49°58' W 001°50'613.6
2018-Sep-23 22:03N 50°03' W 001°43'113.8
2018-Sep-23 22:00N 50°03' W 001°42'713.4
2018-Sep-23 21:30N 50°08' W 001°36'3213.1
2018-Sep-23 19:05N 50°35' W 001°09'012.7
2018-Sep-23 19:03N 50°35' W 001°09'113.4
2018-Sep-23 18:59N 50°36' W 001°08'612.9
2018-Sep-23 18:30N 50°41' W 001°03'613.8
2018-Sep-23 18:03N 50°47' W 001°06'110.3
2018-Sep-23 18:01N 50°48' W 001°07'1 2.6
2018-Sep-23 17:30N 50°49' W 001°06'0 0.0
2018-Sep-23 17:03N 50°49' W 001°06'0 0.0
2018-Sep-23 17:00N 50°49' W 001°06'0 0.0
2018-Sep-23 16:30N 50°49' W 001°06'0 0.0
2018-Sep-23 16:03N 50°49' W 001°06'0 0.0
2018-Sep-23 16:00N 50°49' W 001°06'0 0.0
2018-Sep-23 15:31N 50°49' W 001°06'0 0.0
2018-Sep-23 15:04N 50°49' W 001°06'0 0.0
2018-Sep-23 15:01N 50°49' W 001°06'0 0.0
2018-Sep-23 14:31N 50°49' W 001°06'0 0.0
2018-Sep-23 13:30N 50°49' W 001°06'0 0.0
2018-Sep-23 13:03N 50°49' W 001°06'0 0.0
2018-Sep-23 13:00N 50°49' W 001°06'0 0.0
2018-Sep-23 12:30N 50°49' W 001°06'0 0.0
2018-Sep-23 12:03N 50°49' W 001°06'0 0.0
2018-Sep-23 12:01N 50°49' W 001°06'0 0.0
2018-Sep-23 11:30N 50°49' W 001°06'0 0.0
2018-Sep-23 11:03N 50°49' W 001°06'0 0.0
2018-Sep-23 11:01N 50°49' W 001°06'0 0.0
2018-Sep-23 10:30N 50°49' W 001°06'0 0.0
2018-Sep-23 10:04N 50°49' W 001°06'0 0.0
2018-Sep-23 10:00N 50°49' W 001°06'0 0.0
2018-Sep-23 09:30N 50°49' W 001°06'0 0.0
2018-Sep-23 09:04N 50°49' W 001°06'0 0.0
2018-Sep-23 09:00N 50°49' W 001°06'0 0.0
2018-Sep-23 08:30N 50°49' W 001°06'0 0.0
2018-Sep-23 08:03N 50°49' W 001°06'0 0.0
2018-Sep-23 08:00N 50°49' W 001°06'0 0.0
2018-Sep-23 07:30N 50°49' W 001°06'0 0.0
2018-Sep-23 07:03N 50°49' W 001°06'0 0.0
2018-Sep-23 07:00N 50°49' W 001°06'0 0.0
2018-Sep-23 06:30N 50°49' W 001°06'1 2.3
2018-Sep-23 06:03N 50°48' W 001°07'111.0
2018-Sep-23 06:00N 50°47' W 001°07'714.1
2018-Sep-23 05:30N 50°41' W 001°03'715.4
2018-Sep-23 05:03N 50°34' W 001°08'114.4
2018-Sep-23 05:00N 50°34' W 001°08'6212.5
2018-Sep-23 00:03N 49°43' W 002°04'0 8.7
2018-Sep-23 00:00N 49°43' W 002°04'24 1.2
2018-Sep-22 05:00N 49°25' W 002°29'3 5.6
2018-Sep-22 04:30N 49°27' W 002°32'0 0.0
2018-Sep-22 04:03N 49°27' W 002°32'0 0.0
2018-Sep-22 04:01N 49°27' W 002°32'0 0.2
2018-Sep-22 03:30N 49°27' W 002°32'4 8.1
2018-Sep-22 03:03N 49°26' W 002°26'116.6
2018-Sep-22 02:58N 49°27' W 002°25'8315.5
2018-Sep-21 21:38N 50°34' W 001°10'215.9
2018-Sep-21 21:30N 50°36' W 001°08'715.2
2018-Sep-21 21:03N 50°42' W 001°03'115.5
2018-Sep-21 21:00N 50°43' W 001°03'612.3
2018-Sep-21 20:30N 50°48' W 001°07'1 2.0
2018-Sep-21 20:03N 50°49' W 001°06'0 0.0
2018-Sep-21 20:00N 50°49' W 001°06'0 0.0
2018-Sep-21 19:30N 50°49' W 001°06'0 0.0
2018-Sep-21 19:03N 50°49' W 001°06'0 0.0
2018-Sep-21 19:00N 50°49' W 001°06'0 0.0
2018-Sep-21 18:30N 50°49' W 001°06'0 0.0
2018-Sep-21 18:03N 50°49' W 001°06'0 0.0
2018-Sep-21 18:00N 50°49' W 001°06'0 0.4
2018-Sep-21 17:30N 50°49' W 001°06'4 8.9
2018-Sep-21 17:03N 50°45' W 001°05'115.5
2018-Sep-21 17:00N 50°44' W 001°04'917.3
2018-Sep-21 16:30N 50°36' W 001°08'4818.4
2018-Sep-21 13:54N 49°56' W 001°49'1617.2
2018-Sep-21 12:58N 49°43' W 002°03'2216.8
2018-Sep-21 11:38N 49°22' W 002°16'316.9
2018-Sep-21 11:27N 49°19' W 002°18'9 2.0
2018-Sep-21 07:01N 49°10' W 002°18'417.1
2018-Sep-21 06:48N 49°13' W 002°22'717.7
2018-Sep-21 06:25N 49°16' W 002°31'512.5
2018-Sep-21 06:03N 49°21' W 002°30'317.0
2018-Sep-21 05:54N 49°23' W 002°29'411.0
2018-Sep-21 05:30N 49°27' W 002°32'0 0.0
2018-Sep-21 05:02N 49°27' W 002°32'0 0.0
2018-Sep-21 04:52N 49°27' W 002°32'0 0.0
2018-Sep-21 04:29N 49°27' W 002°32'0 0.0
2018-Sep-21 04:03N 49°27' W 002°32'0 0.3
2018-Sep-21 04:00N 49°27' W 002°32'4 7.6
2018-Sep-21 03:30N 49°26' W 002°26'614.1
2018-Sep-21 03:03N 49°30' W 002°18'114.8
2018-Sep-21 03:00N 49°31' W 002°17'1413.8
2018-Sep-21 01:57N 49°42' W 002°04'715.1
2018-Sep-21 01:30N 49°47' W 001°57'715.4
2018-Sep-21 01:03N 49°52' W 001°49'116.3
2018-Sep-21 01:00N 49°52' W 001°48'816.1
2018-Sep-21 00:31N 49°59' W 001°40'715.8
2018-Sep-21 00:03N 50°05' W 001°36'115.6
2018-Sep-21 00:00N 50°06' W 001°36'815.7
2018-Sep-20 23:30N 50°14' W 001°32'2014.8
2018-Sep-20 22:10N 50°30' W 001°15'515.5
2018-Sep-20 21:50N 50°34' W 001°10'515.8
2018-Sep-20 21:30N 50°38' W 001°06'614.2
2018-Sep-20 21:03N 50°45' W 001°05'115.3
2018-Sep-20 21:00N 50°45' W 001°05'3 6.5
2018-Sep-20 20:30N 50°49' W 001°06'0 0.0
2018-Sep-20 20:03N 50°49' W 001°06'0 0.0
2018-Sep-20 20:00N 50°49' W 001°06'0 0.0
2018-Sep-20 19:30N 50°49' W 001°06'0 0.0
2018-Sep-20 19:03N 50°49' W 001°06'0 0.0
2018-Sep-20 19:00N 50°49' W 001°06'0 0.0
2018-Sep-20 18:30N 50°49' W 001°06'0 0.0
2018-Sep-20 18:03N 50°49' W 001°06'0 0.0
2018-Sep-20 18:00N 50°49' W 001°06'0 0.0
2018-Sep-20 17:30N 50°49' W 001°06'0 0.5
2018-Sep-20 17:04N 50°49' W 001°06'0 5.2
2018-Sep-20 17:00N 50°49' W 001°06'510.0
2018-Sep-20 16:30N 50°44' W 001°04'715.6
2018-Sep-20 16:03N 50°37' W 001°07'120.2
2018-Sep-20 16:00N 50°36' W 001°08'3719.1
2018-Sep-20 14:03N 50°05' W 001°40'118.5
2018-Sep-20 14:00N 50°05' W 001°41'918.5
2018-Sep-20 13:30N 49°57' W 001°49'818.4
2018-Sep-20 13:03N 49°50' W 001°56'118.2
2018-Sep-20 13:00N 49°49' W 001°57'33 4.4
2018-Sep-20 05:33N 49°23' W 002°27'218.0
2018-Sep-20 05:25N 49°25' W 002°29'3 7.1
2018-Sep-20 05:01N 49°27' W 002°32'0 0.0
2018-Sep-20 05:00N 49°27' W 002°32'0 0.0
2018-Sep-20 04:29N 49°27' W 002°32'0 0.0
2018-Sep-20 04:03N 49°27' W 002°32'0 0.0
2018-Sep-20 04:00N 49°27' W 002°32'0 0.0
2018-Sep-20 03:30N 49°27' W 002°32'4 7.8
2018-Sep-20 03:03N 49°26' W 002°27'116.4
2018-Sep-20 02:59N 49°27' W 002°25'2814.5
2018-Sep-20 01:04N 49°48' W 001°59'012.9
2018-Sep-20 01:04N 49°48' W 001°59'114.0
2018-Sep-20 01:00N 49°49' W 001°58'714.5
2018-Sep-20 00:30N 49°56' W 001°53'714.6
2018-Sep-20 00:03N 50°01' W 001°47'115.1
2018-Sep-20 00:00N 50°01' W 001°47'815.1
2018-Sep-19 23:30N 50°07' W 001°38'2814.9
2018-Sep-19 21:38N 50°30' W 001°15'614.9
2018-Sep-19 21:16N 50°35' W 001°10'315.5
2018-Sep-19 21:03N 50°37' W 001°07'116.9
2018-Sep-19 21:01N 50°38' W 001°06'714.7
2018-Sep-19 20:30N 50°45' W 001°05'3 7.4
2018-Sep-19 20:03N 50°49' W 001°06'0 0.0
2018-Sep-19 20:00N 50°49' W 001°06'0 0.0
2018-Sep-19 19:30N 50°49' W 001°06'0 0.0
2018-Sep-19 19:03N 50°49' W 001°06'0 0.0
2018-Sep-19 19:00N 50°49' W 001°06'0 0.0
2018-Sep-19 18:30N 50°49' W 001°06'0 0.0
2018-Sep-19 18:03N 50°49' W 001°06'0 0.0
2018-Sep-19 18:00N 50°49' W 001°06'0 0.0
2018-Sep-19 17:30N 50°49' W 001°06'0 0.0
2018-Sep-19 17:03N 50°49' W 001°06'0 0.1
2018-Sep-19 17:00N 50°49' W 001°06'4 7.0
2018-Sep-19 16:30N 50°45' W 001°05'715.5
2018-Sep-19 16:03N 50°38' W 001°06'120.1
2018-Sep-19 16:00N 50°37' W 001°07'3019.4
2018-Sep-19 14:29N 50°12' W 001°30'1919.2
2018-Sep-19 13:30N 49°57' W 001°47'919.3
2018-Sep-19 13:03N 49°50' W 001°55'119.6
2018-Sep-19 13:00N 49°49' W 001°56'33 5.1
2018-Sep-19 06:37N 49°24' W 002°28'218.2
2018-Sep-19 06:30N 49°26' W 002°29'2 5.5
2018-Sep-19 06:04N 49°27' W 002°32'0 0.0
2018-Sep-19 06:00N 49°27' W 002°32'0 0.0
2018-Sep-19 05:31N 49°27' W 002°32'0 0.1
2018-Sep-19 05:03N 49°27' W 002°32'0 5.8
2018-Sep-19 05:00N 49°27' W 002°31'6 9.8
2018-Sep-19 04:23N 49°28' W 002°22'2414.5
2018-Sep-19 02:42N 49°48' W 002°00'315.4
2018-Sep-19 02:30N 49°51' W 001°58'715.8
2018-Sep-19 02:04N 49°57' W 001°53'116.3
2018-Sep-19 02:00N 49°58' W 001°52'815.1
2018-Sep-19 01:30N 50°03' W 001°45'715.7
2018-Sep-19 01:03N 50°09' W 001°37'116.5
2018-Sep-19 01:00N 50°09' W 001°37'2416.5
2018-Sep-18 23:32N 50°29' W 001°15'617.2
2018-Sep-18 23:10N 50°34' W 001°09'217.8
2018-Sep-18 23:03N 50°36' W 001°07'117.8
2018-Sep-18 23:00N 50°37' W 001°06'815.5
2018-Sep-18 22:30N 50°44' W 001°05'4 9.6
2018-Sep-18 22:03N 50°49' W 001°06'0 0.9
2018-Sep-18 22:00N 50°49' W 001°06'0 0.0
2018-Sep-18 21:31N 50°49' W 001°06'0 0.0
2018-Sep-18 21:03N 50°49' W 001°06'0 0.0
2018-Sep-18 21:01N 50°49' W 001°06'0 0.0
2018-Sep-18 20:30N 50°49' W 001°06'0 0.0
2018-Sep-18 20:04N 50°49' W 001°06'0 0.0
2018-Sep-18 20:01N 50°49' W 001°06'0 0.0
2018-Sep-18 19:31N 50°49' W 001°06'0 0.0
2018-Sep-18 19:04N 50°49' W 001°06'0 0.0
2018-Sep-18 19:01N 50°49' W 001°06'0 0.0
2018-Sep-18 18:31N 50°49' W 001°06'0 0.0
2018-Sep-18 18:03N 50°49' W 001°06'0 0.0
2018-Sep-18 18:00N 50°49' W 001°06'1 1.1
2018-Sep-18 17:31N 50°49' W 001°07'612.4
2018-Sep-18 17:03N 50°43' W 001°03'118.5
2018-Sep-18 17:00N 50°43' W 001°03'816.9
2018-Sep-18 16:31N 50°35' W 001°09'2015.3
2018-Sep-18 15:13N 50°19' W 001°26'1414.5
2018-Sep-18 14:15N 50°07' W 001°39'414.9
2018-Sep-18 14:00N 50°04' W 001°43'714.7
2018-Sep-18 13:30N 49°58' W 001°49'714.8
2018-Sep-18 13:03N 49°52' W 001°53'114.7
2018-Sep-18 13:00N 49°52' W 001°54'2616.0
2018-Sep-18 11:23N 49°31' W 002°17'617.4
2018-Sep-18 11:03N 49°27' W 002°24'118.3
2018-Sep-18 11:00N 49°27' W 002°25'4 7.7
2018-Sep-18 10:28N 49°27' W 002°32'0 0.0
2018-Sep-18 09:59N 49°27' W 002°32'0 0.0
2018-Sep-18 09:30N 49°27' W 002°32'2 4.0
2018-Sep-18 09:03N 49°26' W 002°30'118.4
2018-Sep-18 09:00N 49°25' W 002°30'16 3.5
2018-Sep-18 04:22N 49°10' W 002°20'1212.5
2018-Sep-18 03:21N 49°22' W 002°26'412.0
2018-Sep-18 03:03N 49°25' W 002°29'113.9
2018-Sep-18 03:00N 49°26' W 002°29'2 4.0
2018-Sep-18 02:30N 49°27' W 002°32'0 0.0
2018-Sep-18 02:03N 49°27' W 002°32'0 0.0
2018-Sep-18 01:58N 49°27' W 002°32'4 8.0
2018-Sep-18 01:29N 49°26' W 002°26'714.8
2018-Sep-18 01:03N 49°30' W 002°18'915.2
2018-Sep-18 00:28N 49°35' W 002°07'814.7
2018-Sep-17 23:55N 49°43' W 002°03'513.2
2018-Sep-17 23:31N 49°47' W 001°57'714.9
2018-Sep-17 23:04N 49°52' W 001°50'115.3
2018-Sep-17 23:00N 49°52' W 001°49'714.1
2018-Sep-17 22:30N 49°57' W 001°41'613.4
2018-Sep-17 22:03N 50°01' W 001°34'113.9
2018-Sep-17 22:00N 50°02' W 001°34'713.7
2018-Sep-17 21:30N 50°08' W 001°32'813.6
2018-Sep-17 20:55N 50°16' W 001°29'1314.3
2018-Sep-17 19:59N 50°27' W 001°18'714.8
2018-Sep-17 19:30N 50°33' W 001°11'716.1
2018-Sep-17 19:03N 50°39' W 001°05'118.7
2018-Sep-17 19:00N 50°40' W 001°04'612.2
2018-Sep-17 18:30N 50°46' W 001°05'3 6.3
2018-Sep-17 18:03N 50°49' W 001°06'0 0.0
2018-Sep-17 18:00N 50°49' W 001°06'0 0.0
2018-Sep-17 17:30N 50°49' W 001°06'0 0.0
2018-Sep-17 17:03N 50°49' W 001°06'0 0.0
2018-Sep-17 17:00N 50°49' W 001°06'0 0.0
2018-Sep-17 16:30N 50°49' W 001°06'0 0.0
2018-Sep-17 16:03N 50°49' W 001°06'0 0.0
2018-Sep-17 16:00N 50°49' W 001°06'0 0.0
2018-Sep-17 15:30N 50°49' W 001°06'1 2.3
2018-Sep-17 15:03N 50°48' W 001°07'0 9.8
2018-Sep-17 15:00N 50°48' W 001°07'714.4
2018-Sep-17 14:30N 50°41' W 001°03'815.5
2018-Sep-17 14:00N 50°34' W 001°10'914.5
2018-Sep-17 13:22N 50°27' W 001°18'514.6
2018-Sep-17 13:03N 50°23' W 001°22'114.7
2018-Sep-17 13:00N 50°22' W 001°22'914.6
2018-Sep-17 12:23N 50°15' W 001°30'514.6
2018-Sep-17 12:03N 50°11' W 001°35'114.8
2018-Sep-17 11:59N 50°10' W 001°36'714.5
2018-Sep-17 11:30N 50°04' W 001°42'814.5
2018-Sep-17 10:57N 49°58' W 001°49'614.4
2018-Sep-17 10:30N 49°52' W 001°54'1015.9
2018-Sep-17 09:53N 49°44' W 002°02'3118.5
2018-Sep-17 08:12N 49°15' W 002°21'217.3
2018-Sep-17 08:03N 49°13' W 002°20'117.2
2018-Sep-17 07:59N 49°12' W 002°19'8 2.8
2018-Sep-17 05:05N 49°11' W 002°07'0 0.3
2018-Sep-17 05:03N 49°11' W 002°07'1 6.0
2018-Sep-17 04:55N 49°10' W 002°08'1412.5
2018-Sep-17 03:46N 49°19' W 002°25'413.7
2018-Sep-17 03:28N 49°23' W 002°27'613.5
2018-Sep-17 03:04N 49°27' W 002°32'0 1.8
2018-Sep-17 03:00N 49°27' W 002°32'0 0.0
2018-Sep-17 02:30N 49°27' W 002°32'0 0.0
2018-Sep-17 02:03N 49°27' W 002°32'0 0.0
2018-Sep-17 02:00N 49°27' W 002°32'4 8.0
2018-Sep-17 01:30N 49°27' W 002°26'612.4
2018-Sep-17 01:01N 49°30' W 002°18'2110.5
2018-Sep-16 23:02N 49°47' W 001°59'011.0
2018-Sep-16 22:59N 49°47' W 001°58'611.9
2018-Sep-16 22:30N 49°52' W 001°54'613.0
2018-Sep-16 22:03N 49°57' W 001°49'113.5
2018-Sep-16 22:00N 49°58' W 001°49'713.7
2018-Sep-16 21:30N 50°04' W 001°45'614.0
2018-Sep-16 21:03N 50°10' W 001°40'114.1
2018-Sep-16 21:00N 50°10' W 001°40'1714.6
2018-Sep-16 19:51N 50°24' W 001°24'915.0
2018-Sep-16 19:13N 50°31' W 001°14'314.3
2018-Sep-16 19:01N 50°33' W 001°11'014.3
2018-Sep-16 19:00N 50°33' W 001°11'918.0
2018-Sep-16 18:29N 50°41' W 001°03'614.5
2018-Sep-16 18:04N 50°47' W 001°06'111.1
2018-Sep-16 18:01N 50°47' W 001°07'2 3.0
2018-Sep-16 17:31N 50°49' W 001°06'0 0.0
2018-Sep-16 17:04N 50°49' W 001°06'0 0.0
2018-Sep-16 17:01N 50°49' W 001°06'0 0.0
2018-Sep-16 16:31N 50°49' W 001°06'0 0.0
2018-Sep-16 16:03N 50°49' W 001°06'0 0.0
2018-Sep-16 16:01N 50°49' W 001°06'0 0.0
2018-Sep-16 15:30N 50°49' W 001°06'0 0.0
2018-Sep-16 15:04N 50°49' W 001°06'0 0.0
2018-Sep-16 15:01N 50°49' W 001°06'0 0.0
2018-Sep-16 14:00N 50°49' W 001°06'0 0.0
2018-Sep-16 13:31N 50°49' W 001°06'0 0.0
2018-Sep-16 13:04N 50°49' W 001°06'0 0.0
2018-Sep-16 13:01N 50°49' W 001°06'0 0.0
2018-Sep-16 12:31N 50°49' W 001°06'0 0.0
2018-Sep-16 12:03N 50°49' W 001°06'0 0.0
2018-Sep-16 12:01N 50°49' W 001°06'0 0.0
2018-Sep-16 11:31N 50°49' W 001°06'0 0.0
2018-Sep-16 11:04N 50°49' W 001°06'0 0.0
2018-Sep-16 11:01N 50°49' W 001°06'0 0.0
2018-Sep-16 10:30N 50°49' W 001°06'0 0.0
2018-Sep-16 10:04N 50°49' W 001°06'0 0.0
2018-Sep-16 10:01N 50°49' W 001°06'0 0.0
2018-Sep-16 09:30N 50°49' W 001°06'0 0.0
2018-Sep-16 09:04N 50°49' W 001°06'0 0.0
2018-Sep-16 09:01N 50°49' W 001°06'0 0.0
2018-Sep-16 08:30N 50°49' W 001°06'0 0.0
2018-Sep-16 08:04N 50°49' W 001°06'0 0.0
2018-Sep-16 08:01N 50°49' W 001°06'0 0.0
2018-Sep-16 07:30N 50°49' W 001°06'0 0.0
2018-Sep-16 07:03N 50°49' W 001°06'0 0.0
2018-Sep-16 07:01N 50°49' W 001°06'0 0.0
2018-Sep-16 06:30N 50°49' W 001°06'1 2.7
2018-Sep-16 06:04N 50°48' W 001°07'0 9.2
2018-Sep-16 06:00N 50°47' W 001°06'714.4
2018-Sep-16 05:30N 50°40' W 001°04'714.4
2018-Sep-16 05:03N 50°35' W 001°10'113.7
2018-Sep-16 05:00N 50°34' W 001°10'713.8
2018-Sep-16 04:30N 50°28' W 001°15'613.7
2018-Sep-16 04:04N 50°22' W 001°19'113.6
2018-Sep-16 04:00N 50°22' W 001°20'713.9
2018-Sep-16 03:30N 50°16' W 001°25'614.2
2018-Sep-16 03:03N 50°10' W 001°31'114.4
2018-Sep-16 03:00N 50°10' W 001°31'714.6
2018-Sep-16 02:30N 50°04' W 001°37'715.1
2018-Sep-16 02:03N 49°58' W 001°43'115.5
2018-Sep-16 02:00N 49°57' W 001°44'815.7
2018-Sep-16 01:31N 49°51' W 001°51'3216.7
2018-Sep-15 23:35N 49°24' W 002°17'416.9
2018-Sep-15 23:19N 49°20' W 002°21'516.8
2018-Sep-15 23:01N 49°15' W 002°21'517.5
2018-Sep-15 22:44N 49°11' W 002°18'7 3.4
2018-Sep-15 20:40N 49°10' W 002°07'5 9.8
2018-Sep-15 20:09N 49°05' W 002°11'19 1.2
2018-Sep-15 03:43N 49°21' W 002°27'1 5.1
2018-Sep-15 03:29N 49°22' W 002°27'512.3
2018-Sep-15 03:03N 49°27' W 002°30'111.5
2018-Sep-15 03:00N 49°27' W 002°31'0 0.5
2018-Sep-15 02:30N 49°27' W 002°32'0 0.0
2018-Sep-15 02:03N 49°27' W 002°32'0 0.0
2018-Sep-15 01:59N 49°27' W 002°32'4 7.9
2018-Sep-15 01:30N 49°26' W 002°26'714.3
2018-Sep-15 01:02N 49°30' W 002°18'2113.8
2018-Sep-14 23:31N 49°47' W 001°58'012.7
2018-Sep-14 23:30N 49°47' W 001°58'613.8
2018-Sep-14 23:03N 49°52' W 001°52'114.4
2018-Sep-14 23:00N 49°52' W 001°52'714.4
2018-Sep-14 22:30N 49°58' W 001°44'614.4
2018-Sep-14 22:04N 50°04' W 001°40'115.6
2018-Sep-14 22:01N 50°04' W 001°40'714.5
2018-Sep-14 21:30N 50°10' W 001°32'  

Dump ship's entire track history